Time;durP1;ratioP1;P1;durP2;ratioP2;P2;SDS_P1;SDS_P2;PMS_P1;PMS_P2;Temp;Humidity;BMP_temperature;BMP_pressure;BME280_temperature;BME280_humidity;BME280_pressure;Samples;Min_cycle;Max_cycle;Signal;HPM_P1;HPM_P2
2021/12/12 00:00:59;;;;;;;52.58;31.02;;;-0.70;1.00;;;;;;6113529;23;20279;-82
2021/12/12 00:03:38;;;;;;;50.40;31.02;;;-0.60;1.00;;;;;;6106400;23;20244;-82
2021/12/12 00:06:10;;;;;;;56.00;31.90;;;-0.70;1.00;;;;;;6105858;23;20227;-79
2021/12/12 00:08:46;;;;;;;53.53;32.05;;;-0.70;1.00;;;;;;6114347;23;20215;-78
2021/12/12 00:11:16;;;;;;;61.67;32.20;;;-0.80;1.00;;;;;;6125864;23;20208;-81
2021/12/12 00:13:48;;;;;;;60.70;33.05;;;-0.80;1.00;;;;;;6122903;23;20179;-79
2021/12/12 00:16:16;;;;;;;52.97;31.55;;;-0.80;1.00;;;;;;6124499;23;20216;-79
2021/12/12 00:18:43;;;;;;;52.55;31.70;;;-0.80;1.00;;;;;;6124413;23;20234;-78
2021/12/12 00:21:12;;;;;;;55.67;32.10;;;-0.70;1.00;;;;;;6124168;23;20198;-78
2021/12/12 00:23:40;;;;;;;48.80;30.58;;;-0.70;1.00;;;;;;6124135;23;20293;-79
2021/12/12 00:26:08;;;;;;;54.60;32.13;;;-0.70;1.00;;;;;;6120571;23;20184;-79
2021/12/12 00:28:36;;;;;;;58.25;32.63;;;-0.70;1.00;;;;;;6122120;23;20196;-79
2021/12/12 00:31:10;;;;;;;55.70;32.08;;;-0.70;1.00;;;;;;6121996;23;20215;-80
2021/12/12 00:33:38;;;;;;;52.90;31.05;;;-0.70;1.00;;;;;;6117866;23;20195;-81
2021/12/12 00:36:06;;;;;;;54.65;31.90;;;-0.80;1.00;;;;;;6118547;23;20204;-80
2021/12/12 00:38:35;;;;;;;57.92;33.58;;;-0.80;1.00;;;;;;6111985;23;20200;-79
2021/12/12 00:41:09;;;;;;;59.70;34.58;;;-0.80;1.00;;;;;;6102971;23;20255;-78
2021/12/12 00:43:38;;;;;;;57.38;33.25;;;-0.70;1.00;;;;;;6102395;23;20188;-81
2021/12/12 00:46:09;;;;;;;54.40;32.90;;;-0.70;1.00;;;;;;6098868;23;20224;-79
2021/12/12 00:48:37;;;;;;;53.75;31.88;;;-0.60;1.00;;;;;;6097599;23;20214;-80
2021/12/12 00:51:07;;;;;;;49.78;30.65;;;-0.60;1.00;;;;;;6097826;23;20248;-80
2021/12/12 00:53:34;;;;;;;55.42;31.38;;;-0.50;1.00;;;;;;6102327;23;20204;-79
2021/12/12 00:56:01;;;;;;;50.38;34.80;;;-0.40;1.00;;;;;;6097816;23;20267;-78
2021/12/12 00:58:28;;;;;;;53.95;32.97;;;-0.40;1.00;;;;;;6098375;23;20197;-80
2021/12/12 01:01:02;;;;;;;46.90;30.90;;;-0.40;1.00;;;;;;6103763;23;20192;-79
2021/12/12 01:03:35;;;;;;;48.05;31.02;;;-0.30;1.00;;;;;;6104649;23;20177;-82
2021/12/12 01:06:04;;;;;;;45.70;31.42;;;-0.30;1.00;;;;;;6123888;23;20208;-80
2021/12/12 01:08:37;;;;;;;55.00;32.60;;;-0.30;1.00;;;;;;6130541;23;20172;-79
2021/12/12 01:11:10;;;;;;;46.85;30.02;;;-0.30;1.00;;;;;;6100513;23;20188;-80
2021/12/12 01:13:38;;;;;;;52.78;33.63;;;-0.30;1.00;;;;;;6101094;23;20188;-79
2021/12/12 01:19:02;;;;;;;46.67;29.70;;;-0.30;1.00;;;;;;6103077;23;20204;-80
2021/12/12 01:21:35;;;;;;;43.38;29.65;;;-0.20;1.00;;;;;;6099384;23;20184;-80
2021/12/12 01:24:08;;;;;;;56.28;32.50;;;-0.20;1.00;;;;;;6110857;23;21167;-78
2021/12/12 01:26:37;;;;;;;50.10;34.50;;;-0.30;1.00;;;;;;6084858;23;20212;-80
2021/12/12 01:29:07;;;;;;;46.47;29.60;;;-0.30;1.00;;;;;;6112913;23;20190;-80
2021/12/12 01:31:39;;;;;;;46.35;31.60;;;-0.30;1.00;;;;;;6081095;23;20192;-80
2021/12/12 01:34:11;;;;;;;44.15;30.02;;;-0.30;1.00;;;;;;6086834;23;20220;-79
2021/12/12 01:36:50;;;;;;;44.67;29.58;;;-0.20;1.00;;;;;;6085318;23;20196;-79
2021/12/12 01:39:21;;;;;;;47.88;30.42;;;-0.20;1.00;;;;;;6083661;23;20199;-79
2021/12/12 01:41:54;;;;;;;46.55;29.63;;;-0.10;1.00;;;;;;6110467;23;20386;-79
2021/12/12 01:44:25;;;;;;;40.20;28.83;;;-0.10;1.00;;;;;;6083048;23;20196;-81
2021/12/12 01:47:01;;;;;;;48.92;31.02;;;0.00;1.00;;;;;;6109459;23;20210;-80
2021/12/12 01:49:31;;;;;;;42.25;28.08;;;-0.10;1.00;;;;;;6103458;23;20625;-80
2021/12/12 01:52:01;;;;;;;43.97;28.75;;;-0.10;1.00;;;;;;6101851;23;20200;-82
2021/12/12 01:54:42;;;;;;;42.40;29.13;;;-0.20;1.00;;;;;;6101025;23;20302;-81
2021/12/12 01:57:10;;;;;;;42.70;29.45;;;-0.30;1.00;;;;;;6102894;23;20200;-80
2021/12/12 01:59:38;;;;;;;41.58;29.67;;;-0.40;1.00;;;;;;6103398;23;20207;-79
2021/12/12 02:02:10;;;;;;;44.10;30.23;;;-0.40;1.00;;;;;;6076747;23;20203;-80
2021/12/12 02:04:43;;;;;;;40.38;27.95;;;-0.30;1.00;;;;;;6101261;23;20200;-80
2021/12/12 02:07:13;;;;;;;43.20;29.42;;;-0.30;1.00;;;;;;6075688;23;20201;-81
2021/12/12 02:09:42;;;;;;;38.47;29.23;;;-0.30;1.00;;;;;;6097406;23;20189;-79
2021/12/12 02:12:11;;;;;;;44.78;32.17;;;-0.30;1.00;;;;;;6079169;23;20199;-78
2021/12/12 02:14:40;;;;;;;46.67;29.50;;;-0.40;1.00;;;;;;6111242;23;20200;-78
2021/12/12 02:17:13;;;;;;;44.33;29.48;;;-0.40;1.00;;;;;;6081688;23;20200;-82
2021/12/12 02:19:53;;;;;;;45.00;29.92;;;-0.50;1.00;;;;;;6107603;23;20177;-80
2021/12/12 02:22:39;;;;;;;43.33;28.30;;;-0.50;1.00;;;;;;6111982;23;20188;-80
2021/12/12 02:36:13;;;;;;;42.25;27.73;;;-0.70;1.00;;;;;;6099302;23;20580;-81
2021/12/12 02:38:42;;;;;;;41.30;28.25;;;-0.70;1.00;;;;;;6097774;23;20188;-81
2021/12/12 02:41:12;;;;;;;40.05;28.38;;;-0.70;1.00;;;;;;6099013;23;20316;-80
2021/12/12 02:43:42;;;;;;;43.38;27.70;;;-0.80;1.00;;;;;;6101825;23;20192;-80
2021/12/12 02:46:11;;;;;;;48.78;29.75;;;-0.80;1.00;;;;;;6110702;23;20215;-80
2021/12/12 02:48:41;;;;;;;39.72;27.13;;;-0.80;1.00;;;;;;6098068;23;20188;-80
2021/12/12 02:51:12;;;;;;;41.60;29.15;;;-0.80;1.00;;;;;;6100311;23;20538;-77
2021/12/12 02:53:44;;;;;;;41.13;27.25;;;-0.80;1.00;;;;;;6107344;23;20212;-79
2021/12/12 02:56:14;;;;;;;42.75;29.48;;;-0.80;1.00;;;;;;6106554;23;20184;-80
2021/12/12 02:58:42;;;;;;;42.65;30.02;;;-0.80;1.00;;;;;;6103025;23;20192;-80
2021/12/12 03:01:15;;;;;;;36.80;27.02;;;-0.80;1.00;;;;;;6099730;23;20207;-81
2021/12/12 03:03:43;;;;;;;44.90;29.00;;;-0.80;1.00;;;;;;6103720;23;20835;-81
2021/12/12 03:06:14;;;;;;;39.65;26.92;;;-0.80;1.00;;;;;;6080855;23;20204;-80
2021/12/12 03:08:44;;;;;;;40.08;28.40;;;-0.80;1.00;;;;;;6104706;23;20180;-80
2021/12/12 03:11:11;;;;;;;43.25;27.48;;;-0.80;1.00;;;;;;6104828;23;20185;-81
2021/12/12 03:13:40;;;;;;;41.42;27.73;;;-0.70;1.00;;;;;;6103333;23;20196;-80
2021/12/12 03:16:08;;;;;;;35.65;27.55;;;-0.80;1.00;;;;;;6098272;23;20749;-79
2021/12/12 03:18:40;;;;;;;41.40;28.83;;;-0.80;1.00;;;;;;6099728;23;21164;-81
2021/12/12 03:21:15;;;;;;;36.47;26.92;;;-0.80;1.00;;;;;;6078301;23;20201;-81
2021/12/12 03:23:47;;;;;;;37.28;27.83;;;-0.80;1.00;;;;;;6104390;23;20228;-80
2021/12/12 03:26:15;;;;;;;36.88;27.30;;;-0.80;1.00;;;;;;6108340;23;20308;-81
2021/12/12 03:28:44;;;;;;;41.60;28.83;;;-0.80;1.00;;;;;;6123511;23;20172;-78
2021/12/12 03:31:15;;;;;;;38.38;27.08;;;-0.80;1.00;;;;;;6124095;23;20488;-79
2021/12/12 03:33:42;;;;;;;40.15;28.95;;;-0.80;1.00;;;;;;6124317;23;20196;-79
2021/12/12 03:36:12;;;;;;;37.80;27.50;;;-0.70;1.00;;;;;;6096312;23;20184;-79
2021/12/12 03:38:46;;;;;;;41.40;28.30;;;-0.70;1.00;;;;;;6112867;23;20595;-82
2021/12/12 03:41:20;;;;;;;38.42;27.85;;;-0.70;1.00;;;;;;6076765;23;20199;-82
2021/12/12 03:43:52;;;;;;;41.00;28.55;;;-0.60;1.00;;;;;;6103190;23;20188;-81
2021/12/12 03:46:19;;;;;;;33.33;26.05;;;-0.60;1.00;;;;;;6073306;23;20219;-79
2021/12/12 03:48:46;;;;;;;37.25;28.38;;;-0.50;1.00;;;;;;6101158;23;20192;-82
2021/12/12 03:51:16;;;;;;;35.20;26.90;;;-0.50;1.00;;;;;;6076426;23;20204;-83
2021/12/12 03:53:46;;;;;;;39.80;28.10;;;-0.40;1.00;;;;;;6077648;23;20196;-81
2021/12/12 03:56:16;;;;;;;39.15;28.42;;;-0.40;1.00;;;;;;6101723;23;20272;-81
2021/12/12 03:58:43;;;;;;;38.22;28.15;;;-0.40;1.00;;;;;;6097845;23;20252;-81
2021/12/12 04:01:15;;;;;;;36.17;27.38;;;-0.40;1.00;;;;;;6101825;23;20201;-80
2021/12/12 04:03:44;;;;;;;41.63;27.40;;;-0.30;1.00;;;;;;6101033;23;20248;-80
2021/12/12 04:06:16;;;;;;;37.08;27.83;;;-0.30;1.00;;;;;;6101282;23;20264;-81
2021/12/12 04:08:47;;;;;;;39.97;27.17;;;-0.30;1.00;;;;;;6101987;23;20192;-82
2021/12/12 04:11:17;;;;;;;46.10;29.42;;;-0.30;1.00;;;;;;6100388;23;20598;-79
2021/12/12 04:13:48;;;;;;;41.20;26.70;;;-0.30;1.00;;;;;;6103264;23;20574;-81
2021/12/12 04:16:16;;;;;;;35.90;25.90;;;-0.30;1.00;;;;;;6079120;23;20209;-79
2021/12/12 04:18:43;;;;;;;34.35;25.73;;;-0.30;1.00;;;;;;6102546;23;20284;-81
2021/12/12 04:21:12;;;;;;;34.75;26.38;;;-0.30;1.00;;;;;;6102918;23;20785;-79
2021/12/12 04:23:41;;;;;;;38.30;27.42;;;-0.30;1.00;;;;;;6102901;23;20196;-80
2021/12/12 04:26:13;;;;;;;36.40;26.48;;;-0.20;1.00;;;;;;6101532;23;20906;-81
2021/12/12 04:28:41;;;;;;;36.15;26.10;;;-0.20;1.00;;;;;;6107130;23;20196;-79
2021/12/12 04:31:08;;;;;;;35.05;27.65;;;-0.30;1.00;;;;;;6113166;23;20196;-79
2021/12/12 04:33:37;;;;;;;37.03;27.63;;;-0.20;1.00;;;;;;6113089;23;20197;-80
2021/12/12 04:36:06;;;;;;;40.42;27.90;;;-0.30;1.00;;;;;;6116868;23;20188;-79
2021/12/12 04:38:33;;;;;;;33.80;26.98;;;-0.30;1.00;;;;;;6120558;23;20228;-79
2021/12/12 04:40:59;;;;;;;30.63;25.25;;;-0.40;1.00;;;;;;6121508;23;20192;-79
2021/12/12 04:43:28;;;;;;;37.50;27.60;;;-0.40;1.00;;;;;;6095997;23;21475;-80
2021/12/12 04:46:08;;;;;;;34.88;26.23;;;-0.30;1.00;;;;;;6120535;23;20240;-79
2021/12/12 04:51:46;;;;;;;34.95;26.63;;;-0.10;1.00;;;;;;6029377;23;20198;-81
2021/12/12 04:54:21;;;;;;;37.35;28.63;;;-0.10;1.00;;;;;;6086788;23;20216;-81
2021/12/12 04:56:53;;;;;;;37.28;27.48;;;0.00;1.00;;;;;;6103578;23;20231;-80
2021/12/12 04:59:26;;;;;;;34.15;26.20;;;0.20;1.00;;;;;;6076545;23;21403;-82
2021/12/12 05:02:04;;;;;;;32.80;24.70;;;0.20;1.00;;;;;;6107375;23;20260;-80
2021/12/12 05:04:36;;;;;;;32.10;25.52;;;0.30;1.00;;;;;;6108827;23;20631;-80
2021/12/12 05:07:09;;;;;;;34.70;25.35;;;0.30;1.00;;;;;;6106068;23;20212;-81
2021/12/12 05:09:43;;;;;;;38.00;26.10;;;0.40;1.00;;;;;;6078001;23;20256;-80
2021/12/12 05:12:15;;;;;;;35.53;25.52;;;0.50;1.00;;;;;;6077588;23;20200;-80
2021/12/12 05:14:51;;;;;;;36.80;27.50;;;0.60;1.00;;;;;;6105914;23;21067;-81
2021/12/12 05:17:22;;;;;;;36.38;27.17;;;0.60;1.00;;;;;;6078122;23;20271;-81
2021/12/12 05:19:55;;;;;;;35.90;24.88;;;0.70;1.00;;;;;;6104230;23;20181;-81
2021/12/12 05:22:27;;;;;;;29.40;23.73;;;0.80;1.00;;;;;;6080972;23;20194;-80
2021/12/12 05:24:55;;;;;;;33.53;23.88;;;0.90;1.00;;;;;;6079829;23;20196;-83
2021/12/12 05:27:28;;;;;;;36.30;24.85;;;0.90;1.00;;;;;;6103455;23;20274;-82
2021/12/12 05:30:00;;;;;;;34.50;24.10;;;0.90;1.00;;;;;;6109023;23;20184;-82
2021/12/12 05:32:29;;;;;;;32.95;25.48;;;0.80;1.00;;;;;;6112110;23;20200;-79
2021/12/12 05:34:58;;;;;;;31.73;24.35;;;0.90;1.00;;;;;;6104701;23;20196;-78
2021/12/12 05:37:25;;;;;;;50.78;35.33;;;0.90;1.00;;;;;;6129111;23;20549;-79
2021/12/12 05:39:54;;;;;;;33.30;25.60;;;0.80;1.00;;;;;;6129510;23;20172;-79
2021/12/12 05:42:22;;;;;;;37.28;25.95;;;0.80;1.00;;;;;;6130777;23;20172;-79
2021/12/12 05:44:49;;;;;;;28.42;24.13;;;0.80;1.00;;;;;;6130739;23;20332;-79
2021/12/12 05:47:18;;;;;;;33.10;24.45;;;0.80;1.00;;;;;;6128609;23;20262;-81
2021/12/12 05:49:46;;;;;;;32.75;24.23;;;0.70;1.00;;;;;;6128824;23;20172;-79
2021/12/12 05:52:18;;;;;;;28.88;24.02;;;0.70;1.00;;;;;;6129063;23;20196;-80
2021/12/12 05:54:47;;;;;;;34.55;24.45;;;0.60;1.00;;;;;;6128569;23;20184;-80
2021/12/12 05:57:19;;;;;;;32.15;24.58;;;0.50;1.00;;;;;;6128516;23;20196;-79
2021/12/12 05:59:47;;;;;;;35.25;24.95;;;0.50;1.00;;;;;;6127806;23;20181;-79
2021/12/12 06:02:14;;;;;;;35.78;25.52;;;0.40;1.00;;;;;;6126817;23;20200;-81
2021/12/12 06:04:42;;;;;;;28.52;24.20;;;0.30;1.00;;;;;;6127675;23;20180;-80
2021/12/12 06:07:20;;;;;;;31.83;25.55;;;0.30;1.00;;;;;;6125316;23;20204;-79
2021/12/12 06:09:48;;;;;;;35.72;26.10;;;0.20;1.00;;;;;;6100404;23;20180;-80
2021/12/12 06:12:16;;;;;;;31.40;24.17;;;0.10;1.00;;;;;;6124957;23;20176;-80
2021/12/12 06:14:44;;;;;;;35.15;26.02;;;0.00;1.00;;;;;;6121935;23;20181;-79
2021/12/12 06:17:16;;;;;;;28.63;23.50;;;0.00;1.00;;;;;;6115312;23;20899;-80
2021/12/12 06:19:49;;;;;;;31.98;24.73;;;0.00;1.00;;;;;;6114679;23;20184;-80
2021/12/12 06:22:16;;;;;;;36.22;25.58;;;-0.10;1.00;;;;;;6110300;23;20195;-79
2021/12/12 06:24:43;;;;;;;35.50;26.67;;;-0.20;1.00;;;;;;6111057;23;20195;-81
2021/12/12 06:27:14;;;;;;;33.33;26.95;;;-0.20;1.00;;;;;;6085592;23;20204;-81
2021/12/12 06:29:42;;;;;;;36.85;27.25;;;-0.20;1.00;;;;;;6112284;23;20211;-79
2021/12/12 06:32:09;;;;;;;38.25;28.08;;;-0.30;1.00;;;;;;6105486;23;20247;-79
2021/12/12 06:34:36;;;;;;;34.58;27.70;;;-0.20;1.00;;;;;;6079003;23;20192;-80
2021/12/12 06:37:06;;;;;;;33.97;25.38;;;-0.20;1.00;;;;;;6105436;23;20188;-82
2021/12/12 06:39:33;;;;;;;34.83;25.38;;;-0.30;1.00;;;;;;6105868;23;20241;-80
2021/12/12 06:42:01;;;;;;;37.80;25.88;;;-0.30;1.00;;;;;;6105090;23;20351;-80
2021/12/12 06:44:28;;;;;;;30.58;24.80;;;-0.30;1.00;;;;;;6105777;23;20223;-81
2021/12/12 06:46:55;;;;;;;35.00;26.48;;;-0.20;1.00;;;;;;6109533;23;20207;-80
2021/12/12 06:49:23;;;;;;;39.20;24.88;;;-0.20;1.00;;;;;;6121624;23;20188;-79
2021/12/12 06:51:55;;;;;;;29.45;24.23;;;-0.20;1.00;;;;;;6113148;23;20208;-81
2021/12/12 06:54:26;;;;;;;38.55;25.95;;;-0.20;1.00;;;;;;6080958;23;20973;-81
2021/12/12 06:56:57;;;;;;;35.10;25.60;;;-0.20;1.00;;;;;;6079168;23;20199;-81
2021/12/12 06:59:25;;;;;;;33.38;24.65;;;-0.10;1.00;;;;;;6107743;23;20188;-81
2021/12/12 07:01:53;;;;;;;33.95;26.75;;;-0.20;1.00;;;;;;6104510;23;20244;-81
2021/12/12 07:04:22;;;;;;;33.63;24.10;;;-0.20;1.00;;;;;;6109336;23;20188;-80
2021/12/12 07:06:55;;;;;;;36.30;26.55;;;-0.20;1.00;;;;;;6083135;23;20236;-81
2021/12/12 07:09:24;;;;;;;37.80;26.35;;;-0.10;1.00;;;;;;6084426;23;20188;-80
2021/12/12 07:11:51;;;;;;;34.95;26.67;;;-0.20;1.00;;;;;;6108199;23;20184;-81
2021/12/12 07:14:18;;;;;;;38.42;26.17;;;-0.20;1.00;;;;;;6109969;23;20225;-80
2021/12/12 07:16:46;;;;;;;37.13;27.20;;;-0.20;1.00;;;;;;6108648;23;20192;-80
2021/12/12 07:19:15;;;;;;;33.30;24.95;;;-0.20;1.00;;;;;;6111028;23;20188;-79
2021/12/12 07:21:43;;;;;;;35.75;26.45;;;-0.20;1.00;;;;;;6078692;23;20193;-81
2021/12/12 07:24:11;;;;;;;37.53;26.75;;;-0.20;1.00;;;;;;6106159;23;20200;-79
2021/12/12 07:26:39;;;;;;;32.72;24.70;;;-0.10;1.00;;;;;;6111963;23;20208;-79
2021/12/12 07:29:06;;;;;;;35.10;25.70;;;0.00;1.00;;;;;;6107468;23;20199;-80
2021/12/12 07:31:36;;;;;;;32.75;27.10;;;0.00;1.00;;;;;;6081169;23;20909;-82
2021/12/12 07:34:06;;;;;;;37.20;27.67;;;0.00;1.00;;;;;;6080692;23;20932;-81
2021/12/12 07:36:35;;;;;;;38.00;28.50;;;0.00;1.00;;;;;;6109541;23;20249;-81
2021/12/12 07:39:06;;;;;;;39.25;28.38;;;0.00;1.00;;;;;;6106080;23;21517;-82
2021/12/12 07:41:34;;;;;;;35.88;27.05;;;0.00;1.00;;;;;;6081646;23;21284;-79
2021/12/12 07:44:06;;;;;;;37.22;27.08;;;0.00;1.00;;;;;;6103517;23;20276;-79
2021/12/12 07:46:34;;;;;;;39.55;26.88;;;0.00;1.00;;;;;;6107045;23;20211;-80
2021/12/12 07:49:01;;;;;;;32.78;27.23;;;0.10;1.00;;;;;;6083257;23;21063;-79
2021/12/12 07:51:29;;;;;;;36.78;27.83;;;0.10;1.00;;;;;;6111040;23;20220;-77
2021/12/12 07:53:58;;;;;;;33.92;26.27;;;0.20;1.00;;;;;;6111137;23;20248;-77
2021/12/12 07:56:30;;;;;;;39.55;27.33;;;0.30;1.00;;;;;;6105948;23;20415;-79
2021/12/12 07:58:59;;;;;;;36.83;26.95;;;0.30;1.00;;;;;;6105730;23;20184;-79
2021/12/12 08:01:28;;;;;;;39.83;26.83;;;0.40;1.00;;;;;;6100444;23;20204;-78
2021/12/12 08:03:57;;;;;;;37.28;25.40;;;0.40;1.00;;;;;;6106597;23;20216;-77
2021/12/12 08:06:25;;;;;;;33.97;26.98;;;0.40;1.00;;;;;;6115747;23;20208;-78
2021/12/12 08:08:53;;;;;;;39.65;27.30;;;0.40;1.00;;;;;;6108397;23;20217;-79
2021/12/12 08:11:23;;;;;;;35.10;26.50;;;0.40;1.00;;;;;;6104952;23;20290;-78
2021/12/12 08:13:51;;;;;;;34.38;26.50;;;0.40;1.00;;;;;;6104275;23;20184;-80
2021/12/12 08:16:19;;;;;;;37.08;26.92;;;0.50;1.00;;;;;;6096608;23;20192;-77
2021/12/12 08:18:48;;;;;;;37.78;27.73;;;0.60;1.00;;;;;;6098366;23;20197;-80
2021/12/12 08:21:18;;;;;;;36.28;26.80;;;0.70;1.00;;;;;;6099790;23;20203;-79
2021/12/12 08:23:46;;;;;;;36.13;27.10;;;0.70;1.00;;;;;;6105635;23;20191;-79
2021/12/12 08:26:14;;;;;;;35.83;27.50;;;0.70;1.00;;;;;;6102199;23;20221;-77
2021/12/12 08:28:43;;;;;;;36.63;27.00;;;0.70;1.00;;;;;;6084559;23;21112;-78
2021/12/12 08:31:12;;;;;;;34.50;24.98;;;0.70;1.00;;;;;;6104107;23;20196;-78
2021/12/12 08:33:40;;;;;;;39.08;27.90;;;0.70;1.00;;;;;;6105645;23;20203;-78
2021/12/12 08:36:13;;;;;;;38.83;27.30;;;0.80;1.00;;;;;;6109941;23;20200;-78
2021/12/12 08:38:40;;;;;;;39.45;26.60;;;0.80;1.00;;;;;;6106655;23;20177;-79
2021/12/12 08:41:08;;;;;;;36.47;25.67;;;0.90;1.00;;;;;;6103494;23;20196;-79
2021/12/12 08:43:39;;;;;;;36.97;27.17;;;1.00;1.00;;;;;;6099641;23;20197;-80
2021/12/12 08:46:09;;;;;;;33.95;27.25;;;1.10;1.00;;;;;;6097625;23;20192;-79
2021/12/12 08:48:40;;;;;;;38.03;28.45;;;1.20;1.00;;;;;;6098530;23;20193;-78
2021/12/12 08:51:12;;;;;;;35.78;25.45;;;1.20;1.00;;;;;;6073772;23;20211;-78
2021/12/12 08:53:41;;;;;;;39.97;27.70;;;1.30;1.00;;;;;;6102231;23;20194;-80
2021/12/12 08:56:18;;;;;;;38.50;25.92;;;1.40;1.00;;;;;;6099124;23;20223;-78
2021/12/12 08:58:45;;;;;;;35.30;27.50;;;1.50;1.00;;;;;;6099092;23;20502;-81
2021/12/12 09:01:14;;;;;;;35.97;26.25;;;1.60;1.00;;;;;;6072064;23;20207;-77
2021/12/12 09:03:44;;;;;;;37.78;26.20;;;1.60;1.00;;;;;;6098796;23;20200;-78
2021/12/12 09:06:15;;;;;;;35.88;26.38;;;1.60;1.00;;;;;;6100554;23;20200;-80
2021/12/12 09:08:48;;;;;;;31.83;25.13;;;1.50;1.00;;;;;;6113375;23;20180;-80
2021/12/12 09:11:22;;;;;;;32.65;25.88;;;1.50;1.00;;;;;;6111064;23;20195;-78
2021/12/12 09:13:55;;;;;;;35.30;25.70;;;1.60;1.00;;;;;;6106208;23;20344;-79
2021/12/12 09:16:29;;;;;;;33.75;24.40;;;1.70;1.00;;;;;;6104292;23;20184;-78
2021/12/12 09:19:01;;;;;;;31.63;24.73;;;1.70;1.00;;;;;;6080176;23;20197;-82
2021/12/12 09:21:36;;;;;;;34.88;25.35;;;1.80;1.00;;;;;;6108217;23;20184;-78
2021/12/12 09:24:10;;;;;;;33.08;25.00;;;1.80;1.00;;;;;;6105286;23;21145;-83
2021/12/12 09:26:43;;;;;;;36.70;23.73;;;1.70;1.00;;;;;;6106152;23;20637;-83
2021/12/12 09:29:18;;;;;;;32.15;24.60;;;1.70;1.00;;;;;;6111331;23;20297;-80
2021/12/12 09:31:52;;;;;;;33.88;25.00;;;1.70;1.00;;;;;;6124532;23;20171;-80
2021/12/12 09:34:26;;;;;;;38.33;24.70;;;1.70;1.00;;;;;;6098478;23;20222;-78
2021/12/12 09:36:57;;;;;;;32.80;24.90;;;1.90;1.00;;;;;;6124158;23;20566;-79
2021/12/12 09:39:30;;;;;;;32.78;23.65;;;2.00;1.00;;;;;;6125115;23;20240;-87
2021/12/12 09:42:11;;;;;;;33.47;24.10;;;2.10;1.00;;;;;;6126304;23;20188;-78
2021/12/12 09:44:55;;;;;;;33.45;23.20;;;2.20;1.00;;;;;;6108365;23;20227;-79
2021/12/12 09:47:58;;;;;;;32.10;23.15;;;2.30;1.00;;;;;;6077764;23;20228;-79
2021/12/12 09:53:53;;;;;;;32.45;23.88;;;2.50;1.00;;;;;;6093236;23;20220;-78
2021/12/12 09:56:30;;;;;;;34.55;24.70;;;2.50;1.00;;;;;;6124172;23;20210;-77
2021/12/12 09:59:07;;;;;;;29.45;22.88;;;2.60;1.00;;;;;;6123554;23;20335;-81
2021/12/12 10:01:39;;;;;;;32.15;22.45;;;2.60;1.00;;;;;;6125825;23;20193;-82
2021/12/12 10:04:17;;;;;;;35.38;23.92;;;2.60;1.00;;;;;;6123579;23;20200;-83
2021/12/12 10:06:50;;;;;;;31.33;23.05;;;2.60;1.00;;;;;;6123760;23;20208;-83
2021/12/12 10:09:25;;;;;;;31.35;24.60;;;2.70;1.00;;;;;;6119732;23;20190;-85
2021/12/12 10:12:01;;;;;;;31.20;22.92;;;2.80;1.00;;;;;;6117576;23;20184;-85
2021/12/12 10:14:37;;;;;;;28.30;22.25;;;2.90;1.00;;;;;;6117791;23;20196;-84
2021/12/12 10:17:14;;;;;;;32.40;22.08;;;2.90;1.00;;;;;;6122718;23;20192;-82
2021/12/12 10:19:48;;;;;;;29.23;21.25;;;2.80;1.00;;;;;;6109567;23;20236;-76
2021/12/12 10:22:25;;;;;;;30.23;21.67;;;2.70;1.00;;;;;;6106834;23;20184;-78
2021/12/12 10:25:01;;;;;;;30.40;21.35;;;2.70;1.00;;;;;;6110402;23;20184;-79
2021/12/12 10:27:33;;;;;;;28.27;21.33;;;2.70;1.00;;;;;;6111084;23;20275;-79
2021/12/12 10:30:10;;;;;;;31.40;21.92;;;2.70;1.00;;;;;;6110113;23;20189;-78
2021/12/12 10:32:46;;;;;;;30.38;22.30;;;2.80;1.00;;;;;;6106549;23;20656;-78
2021/12/12 10:35:18;;;;;;;29.98;21.70;;;2.80;1.00;;;;;;6105929;23;20184;-78
2021/12/12 10:37:53;;;;;;;32.20;22.98;;;2.80;1.00;;;;;;6116085;23;20260;-77
2021/12/12 10:40:29;;;;;;;28.90;21.73;;;2.90;1.00;;;;;;6114872;23;20344;-77
2021/12/12 10:43:00;;;;;;;28.00;21.08;;;2.90;1.00;;;;;;6090262;23;21093;-79
2021/12/12 10:45:34;;;;;;;31.23;21.08;;;2.90;1.00;;;;;;6081750;23;20188;-78
2021/12/12 10:48:07;;;;;;;28.92;20.23;;;3.00;1.00;;;;;;6110140;23;20207;-77
2021/12/12 10:50:42;;;;;;;29.48;21.40;;;3.10;1.00;;;;;;6087134;23;20192;-78
2021/12/12 10:53:18;;;;;;;31.10;21.60;;;3.00;1.00;;;;;;6110162;23;20194;-78
2021/12/12 10:55:54;;;;;;;27.55;20.27;;;2.80;1.00;;;;;;6111323;23;20187;-79
2021/12/12 10:58:26;;;;;;;30.52;21.70;;;2.80;1.00;;;;;;6109944;23;20204;-78
2021/12/12 11:00:56;;;;;;;32.25;21.38;;;3.00;1.00;;;;;;6106926;23;20227;-81
2021/12/12 11:03:28;;;;;;;33.53;24.25;;;3.20;1.00;;;;;;6078137;23;20200;-79
2021/12/12 11:06:01;;;;;;;28.90;21.17;;;3.10;1.00;;;;;;6104003;23;20180;-80
2021/12/12 11:08:33;;;;;;;25.90;20.67;;;3.10;1.00;;;;;;6105099;23;20202;-76
2021/12/12 11:11:08;;;;;;;30.10;22.48;;;3.10;1.00;;;;;;6107512;23;20238;-78
2021/12/12 11:13:42;;;;;;;32.35;23.30;;;3.30;1.00;;;;;;6105422;23;20180;-78
2021/12/12 11:16:15;;;;;;;28.67;21.27;;;3.20;1.00;;;;;;6074792;23;20188;-81
2021/12/12 11:18:46;;;;;;;34.90;22.55;;;3.20;1.00;;;;;;6106225;23;20204;-80
2021/12/12 11:21:21;;;;;;;31.38;21.73;;;3.10;1.00;;;;;;6105779;23;20596;-77
2021/12/12 11:23:53;;;;;;;32.03;23.80;;;3.00;1.00;;;;;;6106826;23;20208;-79
2021/12/12 11:26:27;;;;;;;28.92;21.42;;;3.10;1.00;;;;;;6078005;23;20229;-78
2021/12/12 11:28:57;;;;;;;29.40;22.75;;;3.10;1.00;;;;;;6106578;23;20197;-80
2021/12/12 11:31:27;;;;;;;32.83;24.63;;;3.10;1.00;;;;;;6080016;23;20185;-77
2021/12/12 11:33:55;;;;;;;31.30;19.73;;;3.10;1.00;;;;;;6101772;23;20220;-78
2021/12/12 11:36:25;;;;;;;30.45;22.17;;;3.10;1.00;;;;;;6083515;23;20196;-78
2021/12/12 11:39:01;;;;;;;31.15;22.85;;;3.20;1.00;;;;;;6085490;23;20240;-78
2021/12/12 11:41:35;;;;;;;33.70;22.05;;;3.20;1.00;;;;;;6100297;23;20211;-79
2021/12/12 11:44:09;;;;;;;31.90;21.17;;;3.20;1.00;;;;;;6102519;23;20194;-79
2021/12/12 11:46:39;;;;;;;35.13;24.83;;;3.20;1.00;;;;;;6076789;23;20252;-78
2021/12/12 11:49:13;;;;;;;29.10;19.17;;;3.10;1.00;;;;;;6102601;23;20207;-80
2021/12/12 11:51:43;;;;;;;32.70;21.75;;;3.20;1.00;;;;;;6106391;23;20244;-79
2021/12/12 11:54:18;;;;;;;33.05;22.35;;;3.40;1.00;;;;;;6104576;23;20215;-79
2021/12/12 11:56:49;;;;;;;30.98;22.73;;;3.30;1.00;;;;;;6103980;23;20200;-79
2021/12/12 11:59:20;;;;;;;32.85;22.45;;;3.40;1.00;;;;;;6103513;23;20288;-79
2021/12/12 12:01:57;;;;;;;29.83;21.98;;;3.40;1.00;;;;;;6074836;23;20184;-80
2021/12/12 12:04:40;;;;;;;27.20;21.00;;;3.40;1.00;;;;;;6107519;23;20192;-81
2021/12/12 12:07:17;;;;;;;33.40;22.10;;;3.30;1.00;;;;;;6107767;23;20224;-78
2021/12/12 12:10:02;;;;;;;27.80;20.80;;;3.20;1.00;;;;;;6091603;23;20196;-77
2021/12/12 12:13:02;;;;;;;35.75;24.35;;;3.20;1.00;;;;;;6118190;23;20184;-77
2021/12/12 12:15:40;;;;;;;28.00;19.70;;;3.20;1.00;;;;;;6110453;23;20188;-77
2021/12/12 12:18:18;;;;;;;29.42;21.00;;;3.30;1.00;;;;;;6104054;23;20244;-80
2021/12/12 12:20:55;;;;;;;32.72;23.30;;;3.40;1.00;;;;;;6101247;23;20199;-78
2021/12/12 12:23:42;;;;;;;31.60;21.90;;;3.60;1.00;;;;;;6103325;23;20640;-79
2021/12/12 12:29:07;;;;;;;32.00;20.80;;;3.90;1.00;;;;;;6110058;23;20249;-80
2021/12/12 12:32:12;;;;;;;28.70;19.92;;;4.10;1.00;;;;;;6107212;23;20644;-79
2021/12/12 12:35:54;;;;;;;25.48;18.55;;;4.00;1.00;;;;;;6110714;23;20517;-79
2021/12/12 12:38:58;;;;;;;29.45;21.10;;;4.00;1.00;;;;;;6110853;23;20221;-77
2021/12/12 12:42:05;;;;;;;27.50;19.23;;;4.10;1.00;;;;;;6104452;23;20195;-79
2021/12/12 12:44:53;;;;;;;27.27;19.48;;;4.20;1.00;;;;;;6102722;23;20192;-77
2021/12/12 12:48:11;;;;;;;29.25;19.95;;;4.30;1.00;;;;;;6103688;23;20208;-78
2021/12/12 12:50:48;;;;;;;27.88;19.73;;;4.30;1.00;;;;;;6102894;23;20278;-80
2021/12/12 12:53:53;;;;;;;27.75;19.13;;;4.20;1.00;;;;;;6106173;23;20192;-78
2021/12/12 12:57:09;;;;;;;24.48;18.20;;;4.20;1.00;;;;;;6077104;23;20232;-80
2021/12/12 12:59:55;;;;;;;27.48;18.42;;;4.10;1.00;;;;;;6102253;23;20236;-77
2021/12/12 13:02:26;;;;;;;25.77;18.70;;;4.10;1.00;;;;;;6103495;23;20295;-80
2021/12/12 13:05:28;;;;;;;24.02;17.92;;;4.20;1.00;;;;;;6103756;23;20188;-80
2021/12/12 13:08:50;;;;;;;26.92;19.98;;;4.10;1.00;;;;;;6107119;23;20204;-80
2021/12/12 13:11:21;;;;;;;25.05;17.30;;;4.10;1.00;;;;;;6078147;23;21390;-77
2021/12/12 13:13:53;;;;;;;48.92;34.72;;;4.00;1.00;;;;;;6074682;23;20196;-78
2021/12/12 13:16:31;;;;;;;28.17;19.92;;;3.90;1.00;;;;;;6101780;23;20621;-77
2021/12/12 13:19:03;;;;;;;28.67;19.05;;;3.80;1.00;;;;;;6079292;23;20227;-79
2021/12/12 13:21:36;;;;;;;25.00;18.10;;;3.70;1.00;;;;;;6105691;23;20177;-79
2021/12/12 13:24:10;;;;;;;28.65;18.63;;;3.60;1.00;;;;;;6104826;23;20717;-77
2021/12/12 13:26:54;;;;;;;26.75;18.88;;;3.60;1.00;;;;;;6104795;23;20196;-78
2021/12/12 13:29:35;;;;;;;27.33;18.95;;;3.50;1.00;;;;;;6110594;23;20188;-78
2021/12/12 13:32:08;;;;;;;26.95;17.35;;;3.40;1.00;;;;;;6112163;23;20205;-80
2021/12/12 13:34:42;;;;;;;23.65;18.45;;;3.40;1.00;;;;;;6112561;23;20188;-80